createdAt,value
2019-01-14T00:00:25.001Z,6.10
2019-01-14T00:00:57.758Z,6.10
2019-01-14T00:01:30.226Z,6.10
2019-01-14T00:02:03.109Z,6.00
2019-01-14T00:02:35.597Z,6.00
2019-01-14T00:03:08.095Z,5.90
2019-01-14T00:03:40.671Z,5.90
2019-01-14T00:04:13.151Z,5.90
2019-01-14T00:04:45.598Z,5.90
2019-01-14T00:05:18.041Z,5.90
2019-01-14T00:05:50.496Z,6.00
2019-01-14T00:06:22.941Z,5.90
2019-01-14T00:06:55.401Z,5.90
2019-01-14T00:07:27.888Z,5.90
2019-01-14T00:08:00.657Z,6.00
2019-01-14T00:08:33.124Z,6.00
2019-01-14T00:09:07.586Z,6.00
2019-01-14T00:09:40.055Z,6.00
2019-01-14T00:10:12.897Z,5.90
2019-01-14T00:10:45.655Z,5.90
2019-01-14T00:11:18.495Z,5.90
2019-01-14T00:11:50.966Z,5.90
2019-01-14T00:12:23.422Z,5.90
2019-01-14T00:12:55.885Z,5.90
2019-01-14T00:13:28.375Z,5.90
2019-01-14T00:14:00.826Z,5.90
2019-01-14T00:14:33.720Z,5.90
2019-01-14T00:15:06.707Z,5.90
2019-01-14T00:15:39.169Z,6.00
2019-01-14T00:16:12.075Z,6.00
2019-01-14T00:16:44.473Z,5.90
2019-01-14T00:17:16.944Z,5.90
2019-01-14T00:17:49.403Z,5.90
2019-01-14T00:18:21.859Z,5.90
2019-01-14T00:18:54.325Z,5.90
2019-01-14T00:19:26.779Z,5.90
2019-01-14T00:19:59.224Z,5.90
2019-01-14T00:20:31.673Z,5.90
2019-01-14T00:21:04.483Z,5.90
2019-01-14T00:21:36.939Z,5.80
2019-01-14T00:22:09.391Z,5.80
2019-01-14T00:22:42.569Z,5.80
2019-01-14T00:23:15.039Z,5.80
2019-01-14T00:23:47.489Z,5.80
2019-01-14T00:24:19.988Z,5.80
2019-01-14T00:24:52.451Z,5.80
2019-01-14T00:25:24.911Z,5.80
2019-01-14T00:25:57.365Z,5.80
2019-01-14T00:26:29.827Z,5.80
2019-01-14T00:27:02.277Z,5.70
2019-01-14T00:27:34.725Z,5.80
2019-01-14T00:28:07.501Z,5.70
2019-01-14T00:28:39.962Z,5.70
2019-01-14T00:29:12.430Z,5.70
2019-01-14T00:29:44.922Z,5.70
2019-01-14T00:30:17.886Z,5.60
2019-01-14T00:30:50.809Z,5.60
2019-01-14T00:31:23.265Z,5.60
2019-01-14T00:31:55.735Z,5.60
2019-01-14T00:32:28.174Z,5.60
2019-01-14T00:33:00.910Z,5.60
2019-01-14T00:33:33.380Z,5.60
2019-01-14T00:34:06.175Z,5.50
2019-01-14T00:34:38.962Z,5.60
2019-01-14T00:35:11.545Z,5.50
2019-01-14T00:35:44.009Z,5.50
2019-01-14T00:36:17.545Z,5.50
2019-01-14T00:36:50.396Z,5.50
2019-01-14T00:37:22.995Z,5.50
2019-01-14T00:37:55.452Z,5.50
2019-01-14T00:38:27.912Z,5.50
2019-01-14T00:39:00.384Z,5.50
2019-01-14T00:39:33.227Z,5.50
2019-01-14T00:40:08.601Z,5.50
2019-01-14T00:40:41.457Z,5.50
2019-01-14T00:41:13.948Z,5.50
2019-01-14T00:41:46.397Z,5.60
2019-01-14T00:42:18.863Z,5.60
2019-01-14T00:42:51.315Z,5.60
2019-01-14T00:43:23.771Z,5.60
2019-01-14T00:43:56.277Z,5.60
2019-01-14T00:44:28.738Z,5.60
2019-01-14T00:45:01.177Z,5.50
2019-01-14T00:45:33.929Z,5.50
2019-01-14T00:46:06.689Z,5.60
2019-01-14T00:46:39.152Z,5.60
2019-01-14T00:47:11.619Z,5.60
2019-01-14T00:47:44.075Z,5.60
2019-01-14T00:48:16.546Z,5.60
2019-01-14T00:48:49.392Z,5.60
2019-01-14T00:49:22.569Z,5.60
2019-01-14T00:49:55.361Z,5.60
2019-01-14T00:50:27.818Z,5.60
2019-01-14T00:51:00.631Z,5.60
2019-01-14T00:51:33.109Z,5.60
2019-01-14T00:52:05.553Z,5.50
2019-01-14T00:52:37.997Z,5.60
2019-01-14T00:53:10.445Z,5.60
2019-01-14T00:53:42.909Z,5.60
2019-01-14T00:54:15.383Z,5.50
2019-01-14T00:54:48.210Z,5.50
2019-01-14T00:55:20.930Z,5.50
2019-01-14T00:55:53.400Z,5.50
2019-01-14T00:56:26.145Z,5.50
2019-01-14T00:56:58.651Z,5.50
2019-01-14T00:57:31.115Z,5.40
2019-01-14T00:58:03.802Z,5.50
2019-01-14T00:58:36.248Z,5.40
2019-01-14T00:59:09.019Z,5.40
2019-01-14T00:59:41.510Z,5.40
2019-01-14T01:00:19.687Z,5.40
2019-01-14T01:00:52.143Z,5.40
2019-01-14T01:01:24.583Z,5.40
2019-01-14T01:01:57.364Z,5.40
2019-01-14T01:02:29.849Z,5.40
2019-01-14T01:03:02.308Z,5.40
2019-01-14T01:03:35.163Z,5.50
2019-01-14T01:04:07.613Z,5.50
2019-01-14T01:04:40.086Z,5.50
2019-01-14T01:05:12.847Z,5.50
2019-01-14T01:05:45.314Z,5.50
2019-01-14T01:06:24.435Z,5.50
2019-01-14T01:06:52.009Z,5.50
2019-01-14T01:07:24.454Z,5.50
2019-01-14T01:07:56.956Z,5.50
2019-01-14T01:08:29.767Z,5.50
2019-01-14T01:09:02.536Z,5.60
2019-01-14T01:09:34.985Z,5.60
2019-01-14T01:10:09.385Z,5.60
2019-01-14T01:10:41.838Z,5.50
2019-01-14T01:11:14.313Z,5.50
2019-01-14T01:11:46.769Z,5.50
2019-01-14T01:12:19.361Z,5.50
2019-01-14T01:12:52.105Z,5.50
2019-01-14T01:13:24.979Z,5.50
2019-01-14T01:13:57.427Z,5.50
2019-01-14T01:14:30.171Z,5.50
2019-01-14T01:15:02.743Z,5.50
2019-01-14T01:15:35.201Z,5.50
2019-01-14T01:16:08.076Z,5.60
2019-01-14T01:16:40.543Z,5.50
2019-01-14T01:17:13.020Z,5.60
2019-01-14T01:17:45.461Z,5.60
2019-01-14T01:18:17.925Z,5.60
2019-01-14T01:18:51.217Z,5.60
2019-01-14T01:19:23.677Z,5.50
2019-01-14T01:19:56.142Z,5.50
2019-01-14T01:20:29.345Z,5.50
2019-01-14T01:21:01.911Z,5.50
2019-01-14T01:21:34.657Z,5.60
2019-01-14T01:22:07.825Z,5.50
2019-01-14T01:22:40.603Z,5.50
2019-01-14T01:23:13.061Z,5.50
2019-01-14T01:23:45.532Z,5.50
2019-01-14T01:24:18.030Z,5.60
2019-01-14T01:24:50.495Z,5.50
2019-01-14T01:25:23.249Z,5.60
2019-01-14T01:25:56.041Z,5.50
2019-01-14T01:26:28.861Z,5.50
2019-01-14T01:27:01.318Z,5.60
2019-01-14T01:27:33.829Z,5.60
2019-01-14T01:28:06.273Z,5.60
2019-01-14T01:28:38.739Z,5.60
2019-01-14T01:29:11.313Z,5.50
2019-01-14T01:29:43.799Z,5.60
2019-01-14T01:30:17.816Z,5.50
2019-01-14T01:30:50.630Z,5.50
2019-01-14T01:31:23.087Z,5.50
2019-01-14T01:31:55.546Z,5.50
2019-01-14T01:32:28.010Z,5.50
2019-01-14T01:33:00.525Z,5.60
2019-01-14T01:33:32.930Z,5.60
2019-01-14T01:34:05.757Z,5.50
2019-01-14T01:34:38.211Z,5.60
2019-01-14T01:35:12.361Z,5.60
2019-01-14T01:35:44.823Z,5.60
2019-01-14T01:36:17.660Z,5.60
2019-01-14T01:36:50.227Z,5.60
2019-01-14T01:37:22.712Z,5.50
2019-01-14T01:37:55.160Z,5.50
2019-01-14T01:38:27.618Z,5.50
2019-01-14T01:39:00.495Z,5.50
2019-01-14T01:39:33.498Z,5.50
2019-01-14T01:40:09.107Z,5.50
2019-01-14T01:40:41.591Z,5.50
2019-01-14T01:41:14.049Z,5.50
2019-01-14T01:41:46.871Z,5.50
2019-01-14T01:42:19.619Z,5.50
2019-01-14T01:42:52.631Z,5.50
2019-01-14T01:43:25.478Z,5.50
2019-01-14T01:43:57.944Z,5.50
2019-01-14T01:44:30.388Z,5.50
2019-01-14T01:45:03.269Z,5.60
2019-01-14T01:45:35.728Z,5.50
2019-01-14T01:46:08.220Z,5.50
2019-01-14T01:46:41.170Z,5.50
2019-01-14T01:47:13.922Z,5.50
2019-01-14T01:47:46.541Z,5.50
2019-01-14T01:48:19.007Z,5.50
2019-01-14T01:48:51.461Z,5.50
2019-01-14T01:49:23.923Z,5.40
2019-01-14T01:49:56.375Z,5.40
2019-01-14T01:50:28.966Z,5.40
2019-01-14T01:51:01.778Z,5.40
2019-01-14T01:51:34.262Z,5.40
2019-01-14T01:52:06.717Z,5.40
2019-01-14T01:52:39.438Z,5.40
2019-01-14T01:53:11.889Z,5.40
2019-01-14T01:53:44.354Z,5.40
2019-01-14T01:54:17.501Z,5.40
2019-01-14T01:54:49.959Z,5.40
2019-01-14T01:55:22.418Z,5.40
2019-01-14T01:55:54.884Z,5.40
2019-01-14T01:56:27.333Z,5.40
2019-01-14T01:56:59.826Z,5.40
2019-01-14T01:57:32.284Z,5.40
2019-01-14T01:58:04.730Z,5.40
2019-01-14T01:58:37.472Z,5.40
2019-01-14T01:59:09.938Z,5.40
2019-01-14T01:59:42.410Z,5.40
2019-01-14T02:00:19.567Z,5.40
2019-01-14T02:00:52.030Z,5.40
2019-01-14T02:01:24.483Z,5.40
2019-01-14T02:01:56.943Z,5.40
2019-01-14T02:02:29.414Z,5.40
2019-01-14T02:03:02.246Z,5.40
2019-01-14T02:03:34.689Z,5.40
2019-01-14T02:04:07.299Z,5.40
2019-01-14T02:04:39.730Z,5.40
2019-01-14T02:05:12.850Z,5.40
2019-01-14T02:05:45.313Z,5.40
2019-01-14T02:06:17.782Z,5.30
2019-01-14T02:06:50.347Z,5.30
2019-01-14T02:07:23.110Z,5.30
2019-01-14T02:07:55.596Z,5.30
2019-01-14T02:08:28.397Z,5.30
2019-01-14T02:09:01.176Z,5.30
2019-01-14T02:09:33.617Z,5.30
2019-01-14T02:10:08.363Z,5.30
2019-01-14T02:10:40.813Z,5.30
2019-01-14T02:11:13.289Z,5.30
2019-01-14T02:11:45.729Z,5.30
2019-01-14T02:12:18.306Z,5.30
2019-01-14T02:12:50.895Z,5.30
2019-01-14T02:13:23.386Z,5.30
2019-01-14T02:13:56.465Z,5.30
2019-01-14T02:14:29.581Z,5.30
2019-01-14T02:15:02.056Z,5.30
2019-01-14T02:15:34.494Z,5.30
2019-01-14T02:16:06.963Z,5.30
2019-01-14T02:16:39.425Z,5.20
2019-01-14T02:17:12.174Z,5.30
2019-01-14T02:17:44.721Z,5.30
2019-01-14T02:18:17.191Z,5.30
2019-01-14T02:18:49.995Z,5.30
2019-01-14T02:19:22.745Z,5.20
2019-01-14T02:19:55.202Z,5.20
2019-01-14T02:20:27.668Z,5.30
2019-01-14T02:21:00.125Z,5.20
2019-01-14T02:21:32.586Z,5.20
2019-01-14T02:22:05.042Z,5.20
2019-01-14T02:22:37.503Z,5.20
2019-01-14T02:23:10.312Z,5.20
2019-01-14T02:23:42.721Z,5.20
2019-01-14T02:24:15.201Z,5.20
2019-01-14T02:24:48.023Z,5.20
2019-01-14T02:25:20.473Z,5.20
2019-01-14T02:25:53.289Z,5.20
2019-01-14T02:26:26.057Z,5.20
2019-01-14T02:26:58.508Z,5.20
2019-01-14T02:27:30.975Z,5.20
2019-01-14T02:28:03.429Z,5.20
2019-01-14T02:28:35.879Z,5.20
2019-01-14T02:29:08.625Z,5.20
2019-01-14T02:29:41.110Z,5.20
2019-01-14T02:30:16.046Z,5.20
2019-01-14T02:30:48.506Z,5.20
2019-01-14T02:31:20.982Z,5.20
2019-01-14T02:31:53.436Z,5.20
2019-01-14T02:32:25.896Z,5.20
2019-01-14T02:32:58.357Z,5.20
2019-01-14T02:33:30.852Z,5.20
2019-01-14T02:34:03.715Z,5.20
2019-01-14T02:34:36.559Z,5.20
2019-01-14T02:35:09.365Z,5.10
2019-01-14T02:35:41.819Z,5.20
2019-01-14T02:36:14.317Z,5.20
2019-01-14T02:36:48.591Z,5.20
2019-01-14T02:37:21.310Z,5.20
2019-01-14T02:37:54.026Z,5.20
2019-01-14T02:38:26.559Z,5.20
2019-01-14T02:38:59.009Z,5.20
2019-01-14T02:39:31.494Z,5.20
2019-01-14T02:40:05.692Z,5.10
2019-01-14T02:40:38.542Z,5.20
2019-01-14T02:41:11.022Z,5.20
2019-01-14T02:41:43.477Z,5.20
2019-01-14T02:42:16.230Z,5.20
2019-01-14T02:42:48.684Z,5.20
2019-01-14T02:43:21.145Z,5.20
2019-01-14T02:43:53.928Z,5.20
2019-01-14T02:44:26.377Z,5.20
2019-01-14T02:44:59.147Z,5.20
2019-01-14T02:45:31.606Z,5.20
2019-01-14T02:46:04.581Z,5.10
2019-01-14T02:46:37.048Z,5.10
2019-01-14T02:47:10.227Z,5.10
2019-01-14T02:47:43.085Z,5.10
2019-01-14T02:48:15.548Z,5.10
2019-01-14T02:48:48.627Z,5.10
2019-01-14T02:49:21.453Z,5.10
2019-01-14T02:49:53.892Z,5.10
2019-01-14T02:50:26.340Z,5.10
2019-01-14T02:50:58.807Z,5.10
2019-01-14T02:51:31.954Z,5.00
2019-01-14T02:52:04.418Z,5.10
2019-01-14T02:52:39.808Z,5.10
2019-01-14T02:53:11.135Z,5.10
2019-01-14T02:53:44.419Z,5.10
2019-01-14T02:54:16.881Z,5.10
2019-01-14T02:54:49.334Z,5.10
2019-01-14T02:55:21.790Z,5.10
2019-01-14T02:55:54.394Z,5.10
2019-01-14T02:56:26.978Z,5.10
2019-01-14T02:56:59.850Z,5.10
2019-01-14T02:57:32.302Z,5.00
2019-01-14T02:58:04.763Z,5.00
2019-01-14T02:58:37.618Z,5.10
2019-01-14T02:59:10.067Z,5.00
2019-01-14T02:59:42.977Z,5.00
2019-01-14T03:00:18.707Z,5.00
2019-01-14T03:00:51.163Z,5.00
2019-01-14T03:01:23.626Z,5.00
2019-01-14T03:01:56.504Z,5.00
2019-01-14T03:02:28.990Z,5.00
2019-01-14T03:03:01.457Z,5.00
2019-01-14T03:03:34.194Z,5.00
2019-01-14T03:04:06.663Z,5.00
2019-01-14T03:04:39.138Z,5.00
2019-01-14T03:05:11.798Z,5.00
2019-01-14T03:05:44.676Z,5.00
2019-01-14T03:06:17.403Z,5.00
2019-01-14T03:06:57.614Z,5.00
2019-01-14T03:07:24.121Z,5.00
2019-01-14T03:07:56.594Z,5.00
2019-01-14T03:08:29.403Z,5.00
2019-01-14T03:09:01.954Z,5.00
2019-01-14T03:09:34.738Z,5.00
2019-01-14T03:10:08.335Z,5.00
2019-01-14T03:10:40.792Z,5.00
2019-01-14T03:11:13.243Z,5.00
2019-01-14T03:11:45.704Z,4.90
2019-01-14T03:12:18.474Z,5.00
2019-01-14T03:12:50.921Z,5.00
2019-01-14T03:13:23.704Z,4.90
2019-01-14T03:13:56.195Z,5.00
2019-01-14T03:14:28.950Z,4.90
2019-01-14T03:15:01.408Z,4.90
2019-01-14T03:15:33.845Z,4.90
2019-01-14T03:16:06.319Z,4.90
2019-01-14T03:16:38.782Z,4.90
2019-01-14T03:17:11.543Z,4.90
2019-01-14T03:17:43.993Z,4.90
2019-01-14T03:18:16.898Z,4.90
2019-01-14T03:18:49.384Z,4.90
2019-01-14T03:19:21.846Z,4.90
2019-01-14T03:19:54.285Z,4.90
2019-01-14T03:20:26.783Z,4.90
2019-01-14T03:20:59.582Z,4.80
2019-01-14T03:21:32.173Z,4.80
2019-01-14T03:22:05.354Z,4.80
2019-01-14T03:22:37.799Z,4.80
2019-01-14T03:23:10.635Z,4.80
2019-01-14T03:23:43.369Z,4.80
2019-01-14T03:24:15.859Z,4.80
2019-01-14T03:24:48.865Z,4.80
2019-01-14T03:25:21.321Z,4.80
2019-01-14T03:25:58.292Z,4.80
2019-01-14T03:26:28.038Z,4.80
2019-01-14T03:27:00.609Z,4.80
2019-01-14T03:27:33.786Z,4.80
2019-01-14T03:28:06.233Z,4.80
2019-01-14T03:28:39.287Z,4.80
2019-01-14T03:29:11.752Z,4.80
2019-01-14T03:29:44.899Z,4.80
2019-01-14T03:30:19.211Z,4.80
2019-01-14T03:30:51.647Z,4.80
2019-01-14T03:31:24.410Z,4.80
2019-01-14T03:31:56.877Z,4.80
2019-01-14T03:32:29.714Z,4.80
2019-01-14T03:33:02.193Z,4.80
2019-01-14T03:33:34.625Z,4.80
2019-01-14T03:34:07.086Z,4.80
2019-01-14T03:34:39.884Z,4.80
2019-01-14T03:35:12.855Z,4.80
2019-01-14T03:35:45.310Z,4.80
2019-01-14T03:36:17.780Z,4.80
2019-01-14T03:36:50.978Z,4.80
2019-01-14T03:37:23.719Z,4.80
2019-01-14T03:37:56.182Z,4.90
2019-01-14T03:38:28.651Z,4.80
2019-01-14T03:39:01.105Z,4.80
2019-01-14T03:39:33.591Z,4.80
2019-01-14T03:40:08.834Z,4.90
2019-01-14T03:40:41.311Z,4.80
2019-01-14T03:41:13.814Z,4.90
2019-01-14T03:41:46.775Z,4.80
2019-01-14T03:42:19.230Z,4.80
2019-01-14T03:42:52.047Z,4.90
2019-01-14T03:43:24.505Z,4.80
2019-01-14T03:43:56.982Z,4.90
2019-01-14T03:44:29.445Z,4.90
2019-01-14T03:45:01.885Z,4.90
2019-01-14T03:45:35.063Z,4.90
2019-01-14T03:46:07.542Z,4.90
2019-01-14T03:46:41.235Z,4.90
2019-01-14T03:47:13.779Z,4.90
2019-01-14T03:47:46.244Z,4.90
2019-01-14T03:48:18.691Z,4.80
2019-01-14T03:48:51.154Z,4.80
2019-01-14T03:49:23.610Z,4.80
2019-01-14T03:49:56.071Z,4.90
2019-01-14T03:50:28.531Z,4.90
2019-01-14T03:51:00.977Z,4.80
2019-01-14T03:51:33.460Z,4.90
2019-01-14T03:52:05.935Z,4.90
2019-01-14T03:52:38.399Z,4.90
2019-01-14T03:53:11.152Z,4.90
2019-01-14T03:53:43.906Z,4.80
2019-01-14T03:54:16.994Z,4.90
2019-01-14T03:54:49.894Z,4.90
2019-01-14T03:55:22.738Z,4.90
2019-01-14T03:55:55.636Z,4.90
2019-01-14T03:56:28.740Z,4.90
2019-01-14T03:57:01.225Z,4.80
2019-01-14T03:57:33.747Z,4.90
2019-01-14T03:58:06.201Z,4.80
2019-01-14T03:58:38.674Z,4.90
2019-01-14T03:59:11.135Z,4.80
2019-01-14T03:59:43.596Z,4.80
2019-01-14T04:00:16.149Z,4.80
2019-01-14T04:00:48.882Z,4.80
2019-01-14T04:01:21.342Z,4.90
2019-01-14T04:01:53.803Z,4.90
2019-01-14T04:02:26.414Z,4.90
2019-01-14T04:02:58.886Z,4.90
2019-01-14T04:03:31.642Z,4.90
2019-01-14T04:04:04.465Z,4.90
2019-01-14T04:04:37.232Z,4.90
2019-01-14T04:05:10.017Z,4.80
2019-01-14T04:05:42.762Z,4.90
2019-01-14T04:06:15.595Z,4.90
2019-01-14T04:06:48.029Z,4.80
2019-01-14T04:07:20.485Z,4.80
2019-01-14T04:07:52.971Z,4.80
2019-01-14T04:08:25.439Z,4.80
2019-01-14T04:08:57.970Z,4.80
2019-01-14T04:09:30.464Z,4.90
2019-01-14T04:10:03.996Z,4.90
2019-01-14T04:10:36.762Z,4.90
2019-01-14T04:11:09.218Z,4.90
2019-01-14T04:11:41.678Z,4.90
2019-01-14T04:12:14.446Z,4.80
2019-01-14T04:12:46.905Z,4.90
2019-01-14T04:13:19.387Z,4.90
2019-01-14T04:13:51.845Z,4.80
2019-01-14T04:14:24.695Z,4.90
2019-01-14T04:14:57.661Z,4.90
2019-01-14T04:15:30.230Z,4.80
2019-01-14T04:16:03.058Z,4.90
2019-01-14T04:16:35.882Z,4.80
2019-01-14T04:17:08.659Z,4.90
2019-01-14T04:17:41.112Z,4.90
2019-01-14T04:18:13.580Z,4.90
2019-01-14T04:18:46.059Z,4.80
2019-01-14T04:19:18.536Z,4.80
2019-01-14T04:19:50.996Z,4.80
2019-01-14T04:20:23.814Z,4.80
2019-01-14T04:20:56.292Z,4.80
2019-01-14T04:21:28.759Z,4.80
2019-01-14T04:22:01.220Z,4.70
2019-01-14T04:22:33.669Z,4.70
2019-01-14T04:23:06.128Z,4.70
2019-01-14T04:23:38.583Z,4.70
2019-01-14T04:24:11.079Z,4.60
2019-01-14T04:24:43.534Z,4.60
2019-01-14T04:25:15.978Z,4.60
2019-01-14T04:25:48.441Z,4.60
2019-01-14T04:26:21.278Z,4.50
2019-01-14T04:26:54.277Z,4.50
2019-01-14T04:27:26.732Z,4.40
2019-01-14T04:27:59.190Z,4.40
2019-01-14T04:28:31.634Z,4.40
2019-01-14T04:29:04.124Z,4.30
2019-01-14T04:29:36.613Z,4.30
2019-01-14T04:30:12.928Z,4.30
2019-01-14T04:30:45.390Z,4.30
2019-01-14T04:31:17.854Z,4.30
2019-01-14T04:31:50.312Z,4.20
2019-01-14T04:32:22.765Z,4.30
2019-01-14T04:32:55.231Z,4.30
2019-01-14T04:33:28.261Z,4.30
2019-01-14T04:34:01.090Z,4.30
2019-01-14T04:34:33.553Z,4.30
2019-01-14T04:35:06.453Z,4.30
2019-01-14T04:35:38.909Z,4.30
2019-01-14T04:36:11.366Z,4.30
2019-01-14T04:36:44.173Z,4.30
2019-01-14T04:37:21.489Z,4.30
2019-01-14T04:37:51.025Z,4.30
2019-01-14T04:38:23.496Z,4.30
2019-01-14T04:38:56.196Z,4.30
2019-01-14T04:39:28.954Z,4.30
2019-01-14T04:40:01.400Z,4.30
2019-01-14T04:40:33.945Z,4.30
2019-01-14T04:41:06.408Z,4.30
2019-01-14T04:41:38.853Z,4.20
2019-01-14T04:42:11.316Z,4.30
2019-01-14T04:42:43.770Z,4.20
2019-01-14T04:43:16.713Z,4.20
2019-01-14T04:43:49.169Z,4.20
2019-01-14T04:44:21.629Z,4.20
2019-01-14T04:44:54.073Z,4.20
2019-01-14T04:45:26.527Z,4.10
2019-01-14T04:45:59.404Z,4.20
2019-01-14T04:46:32.174Z,4.20
2019-01-14T04:47:04.627Z,4.10
2019-01-14T04:47:37.091Z,4.10
2019-01-14T04:48:09.550Z,4.10
2019-01-14T04:48:42.028Z,4.10
2019-01-14T04:49:14.472Z,4.10
2019-01-14T04:49:46.929Z,4.10
2019-01-14T04:50:20.844Z,4.10
2019-01-14T04:50:53.662Z,4.10
2019-01-14T04:51:26.449Z,4.20
2019-01-14T04:51:58.938Z,4.10
2019-01-14T04:52:31.389Z,4.20
2019-01-14T04:53:03.867Z,4.20
2019-01-14T04:53:36.675Z,4.20
2019-01-14T04:54:09.134Z,4.20
2019-01-14T04:54:41.954Z,4.20
2019-01-14T04:55:14.426Z,4.20
2019-01-14T04:55:46.900Z,4.20
2019-01-14T04:56:19.357Z,4.20
2019-01-14T04:56:52.576Z,4.20
2019-01-14T04:57:25.038Z,4.20
2019-01-14T04:57:57.644Z,4.20
2019-01-14T04:58:30.108Z,4.20
2019-01-14T04:59:05.836Z,4.10
2019-01-14T04:59:38.611Z,4.10
2019-01-14T05:00:16.498Z,4.00
2019-01-14T05:00:48.958Z,4.00
2019-01-14T05:01:21.409Z,3.90
2019-01-14T05:01:54.331Z,3.90
2019-01-14T05:02:26.809Z,3.80
2019-01-14T05:02:59.269Z,3.70
2019-01-14T05:03:31.739Z,3.60
2019-01-14T05:04:04.195Z,3.50
2019-01-14T05:04:36.787Z,3.50
2019-01-14T05:05:10.020Z,3.50
2019-01-14T05:05:42.481Z,3.50
2019-01-14T05:06:14.971Z,3.40
2019-01-14T05:06:47.440Z,3.40
2019-01-14T05:07:19.923Z,3.40
2019-01-14T05:07:52.428Z,3.40
2019-01-14T05:08:24.899Z,3.40
2019-01-14T05:08:57.350Z,3.40
2019-01-14T05:09:29.831Z,3.40
2019-01-14T05:10:03.043Z,3.40
2019-01-14T05:10:35.853Z,3.40
2019-01-14T05:11:08.314Z,3.40
2019-01-14T05:11:40.781Z,3.40
2019-01-14T05:12:13.704Z,3.40
2019-01-14T05:12:46.475Z,3.40
2019-01-14T05:13:18.965Z,3.30
2019-01-14T05:13:51.811Z,3.40
2019-01-14T05:14:24.630Z,3.30
2019-01-14T05:14:57.538Z,3.30
2019-01-14T05:15:29.998Z,3.30
2019-01-14T05:16:02.480Z,3.30
2019-01-14T05:16:34.942Z,3.30
2019-01-14T05:17:07.387Z,3.30
2019-01-14T05:17:39.834Z,3.30
2019-01-14T05:18:12.290Z,3.30
2019-01-14T05:18:45.231Z,3.30
2019-01-14T05:19:18.007Z,3.30
2019-01-14T05:19:50.470Z,3.30
2019-01-14T05:20:25.151Z,3.30
2019-01-14T05:20:57.685Z,3.30
2019-01-14T05:21:30.567Z,3.30
2019-01-14T05:22:03.146Z,3.30
2019-01-14T05:22:35.619Z,3.30
2019-01-14T05:23:08.095Z,3.30
2019-01-14T05:23:40.553Z,3.30
2019-01-14T05:24:13.063Z,3.30
2019-01-14T05:24:45.743Z,3.30
2019-01-14T05:25:18.320Z,3.30
2019-01-14T05:25:50.791Z,3.20
2019-01-14T05:26:23.237Z,3.20
2019-01-14T05:26:59.189Z,3.30
2019-01-14T05:27:31.617Z,3.30
2019-01-14T05:28:04.110Z,3.30
2019-01-14T05:28:36.566Z,3.20
2019-01-14T05:29:09.029Z,3.20
2019-01-14T05:29:41.535Z,3.20
2019-01-14T05:30:14.122Z,3.20
2019-01-14T05:30:46.569Z,3.20
2019-01-14T05:31:19.028Z,3.20
2019-01-14T05:31:51.481Z,3.20
2019-01-14T05:32:23.965Z,3.30
2019-01-14T05:32:57.290Z,3.30
2019-01-14T05:33:30.406Z,3.30
2019-01-14T05:34:02.871Z,3.30
2019-01-14T05:34:35.442Z,3.30
2019-01-14T05:35:08.526Z,3.30
2019-01-14T05:35:41.253Z,3.30
2019-01-14T05:36:14.403Z,3.30
2019-01-14T05:36:46.863Z,3.20
2019-01-14T05:37:19.691Z,3.20
2019-01-14T05:37:52.142Z,3.20
2019-01-14T05:38:24.595Z,3.20
2019-01-14T05:38:57.042Z,3.20
2019-01-14T05:39:29.843Z,3.20
2019-01-14T05:40:02.320Z,3.30
2019-01-14T05:40:35.992Z,3.20
2019-01-14T05:41:08.493Z,3.20
2019-01-14T05:41:41.538Z,3.30
2019-01-14T05:42:13.989Z,3.20
2019-01-14T05:42:46.761Z,3.20
2019-01-14T05:43:19.603Z,3.20
2019-01-14T05:43:52.050Z,3.20
2019-01-14T05:44:24.513Z,3.10
2019-01-14T05:44:57.325Z,3.20
2019-01-14T05:45:29.780Z,3.20
2019-01-14T05:46:02.542Z,3.20
2019-01-14T05:46:35.310Z,3.20
2019-01-14T05:47:07.770Z,3.10
2019-01-14T05:47:40.626Z,3.20
2019-01-14T05:48:13.417Z,3.20
2019-01-14T05:48:45.883Z,3.20
2019-01-14T05:49:18.333Z,3.10
2019-01-14T05:49:50.798Z,3.10
2019-01-14T05:50:23.247Z,3.10
2019-01-14T05:50:56.034Z,3.10
2019-01-14T05:51:28.522Z,3.10
2019-01-14T05:52:01.321Z,3.10
2019-01-14T05:52:33.783Z,3.10
2019-01-14T05:53:06.622Z,3.10
2019-01-14T05:53:39.067Z,3.10
2019-01-14T05:54:11.526Z,3.10
2019-01-14T05:54:44.407Z,3.10
2019-01-14T05:55:16.918Z,3.10
2019-01-14T05:55:49.305Z,3.10
2019-01-14T05:56:21.779Z,3.10
2019-01-14T05:56:54.264Z,3.10
2019-01-14T05:57:26.726Z,3.10
2019-01-14T05:57:59.190Z,3.00
2019-01-14T05:58:31.939Z,3.00
2019-01-14T05:59:04.385Z,3.00
2019-01-14T05:59:36.835Z,3.00
2019-01-14T06:00:39.239Z,3.00
2019-01-14T06:01:11.687Z,3.00
2019-01-14T06:01:44.134Z,3.00
2019-01-14T06:02:16.721Z,3.00
2019-01-14T06:02:49.165Z,3.10
2019-01-14T06:03:21.649Z,3.00
2019-01-14T06:03:54.117Z,3.00
2019-01-14T06:04:26.564Z,3.00
2019-01-14T06:04:59.109Z,3.00
2019-01-14T06:05:32.371Z,3.00
2019-01-14T06:06:04.830Z,3.00
2019-01-14T06:06:37.281Z,3.00
2019-01-14T06:07:09.743Z,3.00
2019-01-14T06:07:44.996Z,3.00
2019-01-14T06:08:16.475Z,3.00
2019-01-14T06:08:49.386Z,3.00
2019-01-14T06:09:21.839Z,3.00
2019-01-14T06:09:54.288Z,3.00
2019-01-14T06:10:27.344Z,3.00
2019-01-14T06:11:00.100Z,3.00
2019-01-14T06:11:32.928Z,3.00
2019-01-14T06:12:05.397Z,3.00
2019-01-14T06:12:38.466Z,3.00
2019-01-14T06:13:10.941Z,3.10
2019-01-14T06:13:43.688Z,3.00
2019-01-14T06:14:16.149Z,3.00
2019-01-14T06:14:48.913Z,3.00
2019-01-14T06:15:21.373Z,3.00
2019-01-14T06:15:53.843Z,3.10
2019-01-14T06:16:26.294Z,3.10
2019-01-14T06:16:58.752Z,3.10
2019-01-14T06:17:31.215Z,3.10
2019-01-14T06:18:04.009Z,3.10
2019-01-14T06:18:37.166Z,3.10
2019-01-14T06:19:09.622Z,3.10
2019-01-14T06:19:42.073Z,3.10
2019-01-14T06:20:14.610Z,3.10
2019-01-14T06:20:47.057Z,3.10
2019-01-14T06:21:19.874Z,3.10
2019-01-14T06:21:52.329Z,3.10
2019-01-14T06:22:24.786Z,3.10
2019-01-14T06:22:57.242Z,3.10
2019-01-14T06:23:29.695Z,3.10
2019-01-14T06:24:02.181Z,3.10
2019-01-14T06:24:34.635Z,3.10
2019-01-14T06:25:08.581Z,3.10
2019-01-14T06:25:41.055Z,3.10
2019-01-14T06:26:13.512Z,3.10
2019-01-14T06:26:46.259Z,3.10
2019-01-14T06:27:18.766Z,3.10
2019-01-14T06:27:51.561Z,3.10
2019-01-14T06:28:24.034Z,3.10
2019-01-14T06:28:56.464Z,3.20
2019-01-14T06:29:28.968Z,3.20
2019-01-14T06:30:01.431Z,3.10
2019-01-14T06:30:33.921Z,3.20
2019-01-14T06:31:06.369Z,3.20
2019-01-14T06:31:38.984Z,3.20
2019-01-14T06:32:11.427Z,3.20
2019-01-14T06:32:43.882Z,3.20
2019-01-14T06:33:16.334Z,3.20
2019-01-14T06:33:48.814Z,3.20
2019-01-14T06:34:21.283Z,3.20
2019-01-14T06:34:53.750Z,3.20
2019-01-14T06:35:26.337Z,3.20
2019-01-14T06:35:59.199Z,3.20
2019-01-14T06:36:32.285Z,3.20
2019-01-14T06:37:04.741Z,3.20
2019-01-14T06:37:37.197Z,3.20
2019-01-14T06:38:09.655Z,3.10
2019-01-14T06:38:42.116Z,3.10
2019-01-14T06:39:14.579Z,3.10
2019-01-14T06:39:47.033Z,3.10
2019-01-14T06:40:20.961Z,3.00
2019-01-14T06:40:53.427Z,3.00
2019-01-14T06:41:26.249Z,3.00
2019-01-14T06:41:58.730Z,2.90
2019-01-14T06:42:31.183Z,2.90
2019-01-14T06:43:03.942Z,2.90
2019-01-14T06:43:36.402Z,2.90
2019-01-14T06:44:08.871Z,2.90
2019-01-14T06:44:41.320Z,2.90
2019-01-14T06:45:14.204Z,2.80
2019-01-14T06:45:46.699Z,2.90
2019-01-14T06:46:19.162Z,2.80
2019-01-14T06:46:51.619Z,2.90
2019-01-14T06:47:24.125Z,2.90
2019-01-14T06:47:56.915Z,2.80
2019-01-14T06:48:31.020Z,2.80
2019-01-14T06:49:04.305Z,2.80
2019-01-14T06:49:36.764Z,2.80
2019-01-14T06:50:10.952Z,2.90
2019-01-14T06:50:43.723Z,2.80
2019-01-14T06:51:16.581Z,2.80
2019-01-14T06:51:49.055Z,2.80
2019-01-14T06:52:21.514Z,2.80
2019-01-14T06:52:54.439Z,2.80
2019-01-14T06:53:26.921Z,2.80
2019-01-14T06:53:59.387Z,2.80
2019-01-14T06:54:31.832Z,2.80
2019-01-14T06:55:04.605Z,2.80
2019-01-14T06:55:37.064Z,2.80
2019-01-14T06:56:09.517Z,2.80
2019-01-14T06:56:42.328Z,2.80
2019-01-14T06:57:14.795Z,2.80
2019-01-14T06:57:47.248Z,2.80
2019-01-14T06:58:19.714Z,2.80
2019-01-14T06:58:52.163Z,2.80
2019-01-14T06:59:24.634Z,2.80
2019-01-14T06:59:57.114Z,2.80
2019-01-14T07:00:29.581Z,2.80
2019-01-14T07:01:02.025Z,2.80
2019-01-14T07:01:34.493Z,2.80
2019-01-14T07:02:06.997Z,2.70
2019-01-14T07:02:40.108Z,2.80
2019-01-14T07:03:12.582Z,2.80
2019-01-14T07:03:45.038Z,2.70
2019-01-14T07:04:17.489Z,2.70
2019-01-14T07:04:50.236Z,2.70
2019-01-14T07:05:22.834Z,2.70
2019-01-14T07:05:55.339Z,2.70
2019-01-14T07:06:27.796Z,2.70
2019-01-14T07:07:00.283Z,2.70
2019-01-14T07:07:32.785Z,2.70
2019-01-14T07:08:05.289Z,2.70
2019-01-14T07:08:37.748Z,2.80
2019-01-14T07:09:10.196Z,2.80
2019-01-14T07:09:43.002Z,2.80
2019-01-14T07:10:18.988Z,2.80
2019-01-14T07:10:52.679Z,2.80
2019-01-14T07:11:25.522Z,2.80
2019-01-14T07:11:57.999Z,2.70
2019-01-14T07:12:30.749Z,2.70
2019-01-14T07:13:03.237Z,2.80
2019-01-14T07:13:35.987Z,2.80
2019-01-14T07:14:08.454Z,2.80
2019-01-14T07:14:41.216Z,2.80
2019-01-14T07:15:13.779Z,2.70
2019-01-14T07:15:46.623Z,2.70